Kezdőlap
METAR-TAF:

METAR-TAF

Repülőterek :

Voronyezs, Oroszország

földrajzi szélesség: 51-39N, földrajzi hosszúság: 039-15E, magasság: 154 m

Jelenlegi meteorológiai megfigyelések

A jelentés 43 perccel ezelõtt készült, 23:30 UTC
Kelet-északkeleti szél 6 kt
Hőmérséklet 0°C
Páratartalom 86%
Légköri nyomás 1027 hPa
Látótávolság: 9000 m
Szakadozott felhőzet 800 lábon

METAR: UUOO 192330Z 06003MPS 9000 BKN008 M00/M02 Q1027 R30/090070 NOSIG RMK QFE757

Idő: 03:13 (00:13 UTC)

Előrejelzés

A jelentés 1 órával és 13 perccel ezelõtt készült, 23:00 UTC
Az előrejelzés 20-én 00 óra UTC és 20-én 09 óra UTC között érvényes
Északkeleti szél 6 kt
Látótávolság: 3100 m
Szakadozott felhőzet 700 lábon
Párásság
20-én 03 óra UTC és 20-én 06 óra UTC között ideiglenes
Látótávolság: 1100 m
Szakadozott felhőzet 500 lábon
Párásság

TAF: UUOO 192300Z 2000/2009 05003MPS 3100 BR BKN007 TEMPO 2003/2006 1100 BR BKN005

Meteorológiai megfigyelések és előrejelzések több, mint 4000 repülőtéren (METAR és TAF jelentéseket).

A térképen piros és sárga pontok jelzik az elérhető meteorológiai állomásokat.

Mozgassa az egeret a pont fölött, hogy megjelenjen az állomás neve.

Azután kattintson az időjárási megfigyelések és előrejelzések megtekintéséhez.

A térkép megváltoztatása: kattintson a fekete keresztel jelölt zöld gombra ráközelítéshez, a vonallal jelölt zöld gombra távolításhoz, vagy a zöld nyilakra a szomszédos térképek eléréséhez.


METAR-TAF: